sensor_id;sensor_type;location;lat;lon;timestamp;pressure;altitude;pressure_sealevel;temperature;humidity
72414;BME280;60995;52.154;4.498;2023-08-30T00:01:43;100968.88;;;17.31;100.00
72414;BME280;60995;52.154;4.498;2023-08-30T00:03:59;100979.09;;;17.38;100.00
72414;BME280;60995;52.154;4.498;2023-08-30T00:06:16;100965.69;;;17.51;100.00
72414;BME280;60995;52.154;4.498;2023-08-30T00:08:32;100959.13;;;17.52;100.00
72414;BME280;60995;52.154;4.498;2023-08-30T00:10:49;100953.84;;;17.50;100.00
72414;BME280;60995;52.154;4.498;2023-08-30T00:13:05;100954.72;;;17.43;100.00
72414;BME280;60995;52.154;4.498;2023-08-30T00:15:22;100954.09;;;17.32;100.00
72414;BME280;60995;52.154;4.498;2023-08-30T00:17:38;100954.72;;;17.43;100.00
72414;BME280;60995;52.154;4.498;2023-08-30T00:19:55;100958.88;;;17.39;100.00
72414;BME280;60995;52.154;4.498;2023-08-30T00:22:11;100955.63;;;17.35;100.00
72414;BME280;60995;52.154;4.498;2023-08-30T00:24:28;100948.63;;;17.32;100.00
72414;BME280;60995;52.154;4.498;2023-08-30T00:26:44;100950.81;;;17.37;100.00
72414;BME280;60995;52.154;4.498;2023-08-30T00:29:01;100960.63;;;17.31;100.00
72414;BME280;60995;52.154;4.498;2023-08-30T00:31:17;100949.81;;;17.38;100.00
72414;BME280;60995;52.154;4.498;2023-08-30T00:33:33;100945.97;;;17.47;100.00
72414;BME280;60995;52.154;4.498;2023-08-30T00:35:59;100950.25;;;17.50;100.00
72414;BME280;60995;52.154;4.498;2023-08-30T00:38:16;100948.03;;;17.45;100.00
72414;BME280;60995;52.154;4.498;2023-08-30T00:40:41;100952.63;;;17.53;100.00
72414;BME280;60995;52.154;4.498;2023-08-30T00:42:57;100949.13;;;17.36;100.00
72414;BME280;60995;52.154;4.498;2023-08-30T00:45:14;100953.06;;;17.33;100.00
72414;BME280;60995;52.154;4.498;2023-08-30T00:47:30;100957.53;;;17.34;100.00
72414;BME280;60995;52.154;4.498;2023-08-30T00:49:47;100957.41;;;17.28;100.00
72414;BME280;60995;52.154;4.498;2023-08-30T00:52:07;100958.38;;;17.35;100.00
72414;BME280;60995;52.154;4.498;2023-08-30T00:54:26;100950.97;;;17.44;100.00
72414;BME280;60995;52.154;4.498;2023-08-30T00:56:43;100948.66;;;17.24;100.00
72414;BME280;60995;52.154;4.498;2023-08-30T00:59:00;100944.50;;;17.36;100.00
72414;BME280;60995;52.154;4.498;2023-08-30T01:01:17;100947.56;;;17.42;100.00
72414;BME280;60995;52.154;4.498;2023-08-30T01:03:34;100935.59;;;17.34;100.00
72414;BME280;60995;52.154;4.498;2023-08-30T01:05:51;100948.97;;;17.29;100.00
72414;BME280;60995;52.154;4.498;2023-08-30T01:08:07;100951.19;;;17.34;100.00
72414;BME280;60995;52.154;4.498;2023-08-30T01:10:31;100943.28;;;17.39;100.00
72414;BME280;60995;52.154;4.498;2023-08-30T01:13:09;100936.59;;;17.42;100.00
72414;BME280;60995;52.154;4.498;2023-08-30T01:15:29;100933.84;;;17.42;100.00
72414;BME280;60995;52.154;4.498;2023-08-30T01:17:48;100943.19;;;17.24;100.00
72414;BME280;60995;52.154;4.498;2023-08-30T01:20:08;100942.84;;;17.19;100.00
72414;BME280;60995;52.154;4.498;2023-08-30T01:27:28;100936.75;;;17.40;100.00
72414;BME280;60995;52.154;4.498;2023-08-30T01:29:49;100925.63;;;17.42;100.00
72414;BME280;60995;52.154;4.498;2023-08-30T01:32:08;100932.66;;;17.36;100.00
72414;BME280;60995;52.154;4.498;2023-08-30T01:34:25;100927.72;;;17.31;100.00
72414;BME280;60995;52.154;4.498;2023-08-30T01:36:42;100927.03;;;17.29;100.00
72414;BME280;60995;52.154;4.498;2023-08-30T01:38:59;100945.28;;;17.14;100.00
72414;BME280;60995;52.154;4.498;2023-08-30T01:41:16;100947.38;;;17.12;100.00
72414;BME280;60995;52.154;4.498;2023-08-30T01:43:35;100948.38;;;17.11;100.00
72414;BME280;60995;52.154;4.498;2023-08-30T01:45:53;100943.44;;;17.06;100.00
72414;BME280;60995;52.154;4.498;2023-08-30T01:48:14;100944.97;;;17.09;100.00
72414;BME280;60995;52.154;4.498;2023-08-30T01:50:33;100950.75;;;17.14;100.00
72414;BME280;60995;52.154;4.498;2023-08-30T01:52:51;100940.03;;;17.04;100.00
72414;BME280;60995;52.154;4.498;2023-08-30T01:55:08;100934.00;;;17.09;100.00
72414;BME280;60995;52.154;4.498;2023-08-30T01:57:27;100946.63;;;17.18;100.00
72414;BME280;60995;52.154;4.498;2023-08-30T01:59:43;100942.41;;;17.07;100.00
72414;BME280;60995;52.154;4.498;2023-08-30T02:02:00;100951.13;;;17.11;100.00
72414;BME280;60995;52.154;4.498;2023-08-30T02:04:16;100945.41;;;17.20;100.00
72414;BME280;60995;52.154;4.498;2023-08-30T02:06:42;100938.06;;;17.21;100.00
72414;BME280;60995;52.154;4.498;2023-08-30T02:11:58;100925.06;;;17.15;100.00
72414;BME280;60995;52.154;4.498;2023-08-30T02:14:18;100924.63;;;17.34;100.00
72414;BME280;60995;52.154;4.498;2023-08-30T02:16:37;100927.13;;;17.13;100.00
72414;BME280;60995;52.154;4.498;2023-08-30T02:18:55;100920.72;;;17.29;100.00
72414;BME280;60995;52.154;4.498;2023-08-30T02:21:13;100911.28;;;17.31;100.00
72414;BME280;60995;52.154;4.498;2023-08-30T02:23:29;100912.00;;;17.25;100.00
72414;BME280;60995;52.154;4.498;2023-08-30T02:25:46;100914.47;;;17.12;100.00
72414;BME280;60995;52.154;4.498;2023-08-30T02:28:02;100910.84;;;17.19;100.00
72414;BME280;60995;52.154;4.498;2023-08-30T02:30:19;100909.13;;;17.18;100.00
72414;BME280;60995;52.154;4.498;2023-08-30T02:32:35;100901.69;;;17.27;100.00
72414;BME280;60995;52.154;4.498;2023-08-30T02:34:52;100907.47;;;17.32;100.00
72414;BME280;60995;52.154;4.498;2023-08-30T02:37:09;100892.72;;;17.42;100.00
72414;BME280;60995;52.154;4.498;2023-08-30T02:39:25;100892.09;;;17.23;100.00
72414;BME280;60995;52.154;4.498;2023-08-30T02:41:42;100891.34;;;17.38;100.00
72414;BME280;60995;52.154;4.498;2023-08-30T02:43:58;100896.81;;;17.38;100.00
72414;BME280;60995;52.154;4.498;2023-08-30T02:46:14;100891.50;;;17.44;100.00
72414;BME280;60995;52.154;4.498;2023-08-30T02:48:31;100890.00;;;17.33;100.00
72414;BME280;60995;52.154;4.498;2023-08-30T02:50:49;100881.41;;;17.36;100.00
72414;BME280;60995;52.154;4.498;2023-08-30T02:53:05;100881.13;;;17.31;100.00
72414;BME280;60995;52.154;4.498;2023-08-30T02:55:24;100878.38;;;17.31;100.00
72414;BME280;60995;52.154;4.498;2023-08-30T02:57:40;100867.50;;;17.15;100.00
72414;BME280;60995;52.154;4.498;2023-08-30T02:59:56;100866.81;;;17.13;100.00
72414;BME280;60995;52.154;4.498;2023-08-30T03:02:12;100868.91;;;17.02;100.00
72414;BME280;60995;52.154;4.498;2023-08-30T03:04:29;100867.56;;;16.98;100.00
72414;BME280;60995;52.154;4.498;2023-08-30T03:06:45;100864.88;;;16.90;100.00
72414;BME280;60995;52.154;4.498;2023-08-30T03:09:02;100868.16;;;16.77;100.00
72414;BME280;60995;52.154;4.498;2023-08-30T03:11:22;100871.44;;;16.73;100.00
72414;BME280;60995;52.154;4.498;2023-08-30T03:13:38;100870.75;;;16.70;100.00
72414;BME280;60995;52.154;4.498;2023-08-30T03:15:55;100877.97;;;16.63;100.00
72414;BME280;60995;52.154;4.498;2023-08-30T03:18:11;100876.56;;;16.76;100.00
72414;BME280;60995;52.154;4.498;2023-08-30T03:20:28;100869.91;;;16.62;100.00
72414;BME280;60995;52.154;4.498;2023-08-30T03:22:44;100854.53;;;16.52;100.00
72414;BME280;60995;52.154;4.498;2023-08-30T03:25:00;100850.25;;;16.58;100.00
72414;BME280;60995;52.154;4.498;2023-08-30T03:27:19;100854.41;;;16.46;100.00
72414;BME280;60995;52.154;4.498;2023-08-30T03:29:35;100852.03;;;16.34;100.00
72414;BME280;60995;52.154;4.498;2023-08-30T03:31:52;100851.69;;;16.29;100.00
72414;BME280;60995;52.154;4.498;2023-08-30T03:34:08;100849.66;;;16.31;100.00
72414;BME280;60995;52.154;4.498;2023-08-30T03:36:25;100853.75;;;16.35;100.00
72414;BME280;60995;52.154;4.498;2023-08-30T03:38:42;100852.03;;;16.34;100.00
72414;BME280;60995;52.154;4.498;2023-08-30T03:40:59;100846.56;;;16.34;100.00
72414;BME280;60995;52.154;4.498;2023-08-30T03:43:15;100853.91;;;16.42;100.00
72414;BME280;60995;52.154;4.498;2023-08-30T03:45:36;100840.53;;;16.47;100.00
72414;BME280;60995;52.154;4.498;2023-08-30T03:47:53;100843.81;;;16.43;100.00
72414;BME280;60995;52.154;4.498;2023-08-30T03:50:09;100843.16;;;16.32;100.00
72414;BME280;60995;52.154;4.498;2023-08-30T03:52:25;100848.28;;;16.35;100.00
72414;BME280;60995;52.154;4.498;2023-08-30T03:54:42;100848.63;;;16.32;100.00
72414;BME280;60995;52.154;4.498;2023-08-30T03:56:58;100855.63;;;16.27;100.00
72414;BME280;60995;52.154;4.498;2023-08-30T03:59:14;100847.31;;;16.12;100.00
72414;BME280;60995;52.154;4.498;2023-08-30T04:01:30;100852.09;;;16.01;100.00
72414;BME280;60995;52.154;4.498;2023-08-30T04:03:46;100841.50;;;16.07;100.00
72414;BME280;60995;52.154;4.498;2023-08-30T04:06:03;100849.38;;;15.93;100.00
72414;BME280;60995;52.154;4.498;2023-08-30T04:08:19;100856.53;;;15.94;100.00
72414;BME280;60995;52.154;4.498;2023-08-30T04:10:40;100849.38;;;15.93;100.00
72414;BME280;60995;52.154;4.498;2023-08-30T04:12:57;100844.09;;;15.83;100.00
72414;BME280;60995;52.154;4.498;2023-08-30T04:15:13;100841.16;;;15.77;100.00
72414;BME280;60995;52.154;4.498;2023-08-30T04:17:30;100853.31;;;15.66;100.00
72414;BME280;60995;52.154;4.498;2023-08-30T04:19:47;100858.06;;;15.72;100.00
72414;BME280;60995;52.154;4.498;2023-08-30T04:22:04;100860.66;;;15.74;100.00
72414;BME280;60995;52.154;4.498;2023-08-30T04:24:20;100856.19;;;15.73;100.00
72414;BME280;60995;52.154;4.498;2023-08-30T04:26:37;100858.78;;;15.82;100.00
72414;BME280;60995;52.154;4.498;2023-08-30T04:28:53;100856.00;;;15.58;100.00
72414;BME280;60995;52.154;4.498;2023-08-30T04:31:09;100858.78;;;15.66;100.00
72414;BME280;60995;52.154;4.498;2023-08-30T04:33:26;100843.03;;;15.68;100.00
72414;BME280;60995;52.154;4.498;2023-08-30T04:35:42;100853.44;;;15.56;100.00
72414;BME280;60995;52.154;4.498;2023-08-30T04:37:59;100857.22;;;15.55;100.00
72414;BME280;60995;52.154;4.498;2023-08-30T04:40:16;100839.25;;;15.44;100.00
72414;BME280;60995;52.154;4.498;2023-08-30T04:42:32;100838.75;;;15.41;100.00
72414;BME280;60995;52.154;4.498;2023-08-30T04:44:48;100835.34;;;15.47;100.00
72414;BME280;60995;52.154;4.498;2023-08-30T04:47:05;100846.28;;;15.47;100.00
72414;BME280;60995;52.154;4.498;2023-08-30T04:49:21;100844.22;;;15.41;100.00
72414;BME280;60995;52.154;4.498;2023-08-30T04:51:37;100848.84;;;15.40;100.00
72414;BME280;60995;52.154;4.498;2023-08-30T04:53:53;100863.69;;;15.46;100.00
72414;BME280;60995;52.154;4.498;2023-08-30T04:56:13;100870.88;;;15.38;100.00
72414;BME280;60995;52.154;4.498;2023-08-30T04:58:30;100875.16;;;15.49;100.00
72414;BME280;60995;52.154;4.498;2023-08-30T05:00:46;100869.84;;;15.56;100.00
72414;BME280;60995;52.154;4.498;2023-08-30T05:03:02;100880.13;;;15.62;100.00
72414;BME280;60995;52.154;4.498;2023-08-30T05:05:19;100881.16;;;15.61;100.00
72414;BME280;60995;52.154;4.498;2023-08-30T05:07:35;100888.69;;;15.67;100.00
72414;BME280;60995;52.154;4.498;2023-08-30T05:09:51;100892.44;;;15.66;100.00
72414;BME280;60995;52.154;4.498;2023-08-30T05:12:08;100897.22;;;15.73;100.00
72414;BME280;60995;52.154;4.498;2023-08-30T05:14:25;100901.66;;;15.49;100.00
72414;BME280;60995;52.154;4.498;2023-08-30T05:16:41;100902.31;;;15.43;100.00
72414;BME280;60995;52.154;4.498;2023-08-30T05:18:57;100916.00;;;15.43;100.00
72414;BME280;60995;52.154;4.498;2023-08-30T05:21:14;100914.28;;;15.33;100.00
72414;BME280;60995;52.154;4.498;2023-08-30T05:23:30;100900.91;;;15.22;100.00
72414;BME280;60995;52.154;4.498;2023-08-30T05:25:48;100896.44;;;15.04;100.00
72414;BME280;60995;52.154;4.498;2023-08-30T05:28:04;100921.66;;;14.98;100.00
72414;BME280;60995;52.154;4.498;2023-08-30T05:30:21;100935.94;;;14.84;100.00
72414;BME280;60995;52.154;4.498;2023-08-30T05:32:37;100960.38;;;14.85;100.00
72414;BME280;60995;52.154;4.498;2023-08-30T05:34:53;100953.72;;;14.88;100.00
72414;BME280;60995;52.154;4.498;2023-08-30T05:37:10;100968.94;;;14.91;100.00
72414;BME280;60995;52.154;4.498;2023-08-30T05:39:26;100945.50;;;14.80;100.00
72414;BME280;60995;52.154;4.498;2023-08-30T05:41:42;100965.47;;;14.80;100.00
72414;BME280;60995;52.154;4.498;2023-08-30T05:43:59;100990.38;;;14.77;100.00
72414;BME280;60995;52.154;4.498;2023-08-30T05:46:15;101002.09;;;14.69;100.00
72414;BME280;60995;52.154;4.498;2023-08-30T05:48:33;101015.75;;;14.69;100.00
72414;BME280;60995;52.154;4.498;2023-08-30T05:50:50;101030.09;;;14.71;100.00
72414;BME280;60995;52.154;4.498;2023-08-30T05:53:06;101034.91;;;14.78;100.00
72414;BME280;60995;52.154;4.498;2023-08-30T05:55:22;101030.44;;;14.68;100.00
72414;BME280;60995;52.154;4.498;2023-08-30T05:57:39;101024.00;;;14.60;100.00
72414;BME280;60995;52.154;4.498;2023-08-30T05:59:55;101016.16;;;14.56;100.00
72414;BME280;60995;52.154;4.498;2023-08-30T06:02:11;100992.78;;;14.62;100.00
72414;BME280;60995;52.154;4.498;2023-08-30T06:04:27;100966.78;;;14.50;100.00
72414;BME280;60995;52.154;4.498;2023-08-30T06:06:44;100955.19;;;14.56;100.00
72414;BME280;60995;52.154;4.498;2023-08-30T06:09:00;100927.47;;;14.43;100.00
72414;BME280;60995;52.154;4.498;2023-08-30T06:11:16;100843.63;;;14.61;100.00
72414;BME280;60995;52.154;4.498;2023-08-30T06:13:33;100831.97;;;14.51;100.00
72414;BME280;60995;52.154;4.498;2023-08-30T06:15:52;100810.47;;;14.48;100.00
72414;BME280;60995;52.154;4.498;2023-08-30T06:18:08;100799.53;;;14.48;100.00
72414;BME280;60995;52.154;4.498;2023-08-30T06:20:24;100782.81;;;14.43;100.00
72414;BME280;60995;52.154;4.498;2023-08-30T06:22:41;100773.06;;;14.40;100.00
72414;BME280;60995;52.154;4.498;2023-08-30T06:24:59;100751.75;;;14.35;100.00
72414;BME280;60995;52.154;4.498;2023-08-30T06:27:15;100721.44;;;14.63;100.00
72414;BME280;60995;52.154;4.498;2023-08-30T06:29:32;100714.25;;;14.62;100.00
72414;BME280;60995;52.154;4.498;2023-08-30T06:31:48;100709.09;;;14.51;100.00
72414;BME280;60995;52.154;4.498;2023-08-30T06:34:04;100698.53;;;14.56;100.00
72414;BME280;60995;52.154;4.498;2023-08-30T06:36:20;100694.47;;;14.60;100.00
72414;BME280;60995;52.154;4.498;2023-08-30T06:38:39;100683.06;;;14.65;100.00
72414;BME280;60995;52.154;4.498;2023-08-30T06:40:57;100685.31;;;14.78;100.00
72414;BME280;60995;52.154;4.498;2023-08-30T06:43:14;100680.19;;;14.75;100.00
72414;BME280;60995;52.154;4.498;2023-08-30T06:45:31;100676.78;;;14.72;100.00
72414;BME280;60995;52.154;4.498;2023-08-30T06:47:50;100676.44;;;14.84;100.00
72414;BME280;60995;52.154;4.498;2023-08-30T06:50:08;100676.28;;;14.85;100.00
72414;BME280;60995;52.154;4.498;2023-08-30T06:52:25;100675.09;;;15.04;100.00
72414;BME280;60995;52.154;4.498;2023-08-30T06:54:41;100688.06;;;14.94;100.00
72414;BME280;60995;52.154;4.498;2023-08-30T06:56:58;100699.50;;;14.89;100.00
72414;BME280;60995;52.154;4.498;2023-08-30T06:59:15;100694.88;;;14.82;100.00
72414;BME280;60995;52.154;4.498;2023-08-30T07:01:32;100693.19;;;14.89;100.00
72414;BME280;60995;52.154;4.498;2023-08-30T07:03:48;100697.63;;;14.98;100.00
72414;BME280;60995;52.154;4.498;2023-08-30T07:06:04;100686.88;;;14.97;100.00
72414;BME280;60995;52.154;4.498;2023-08-30T07:08:21;100679.38;;;15.07;100.00
72414;BME280;60995;52.154;4.498;2023-08-30T07:10:37;100679.50;;;15.05;100.00
72414;BME280;60995;52.154;4.498;2023-08-30T07:12:54;100683.44;;;15.03;100.00
72414;BME280;60995;52.154;4.498;2023-08-30T07:15:10;100665.16;;;15.20;100.00
72414;BME280;60995;52.154;4.498;2023-08-30T07:17:26;100660.22;;;15.32;100.00
72414;BME280;60995;52.154;4.498;2023-08-30T07:19:43;100654.56;;;15.33;100.00
72414;BME280;60995;52.154;4.498;2023-08-30T07:21:59;100665.63;;;15.48;100.00
72414;BME280;60995;52.154;4.498;2023-08-30T07:24:15;100674.84;;;15.47;100.00
72414;BME280;60995;52.154;4.498;2023-08-30T07:26:32;100684.22;;;15.61;100.00
72414;BME280;60995;52.154;4.498;2023-08-30T07:28:49;100698.94;;;15.68;100.00
72414;BME280;60995;52.154;4.498;2023-08-30T07:31:06;100702.31;;;15.70;100.00
72414;BME280;60995;52.154;4.498;2023-08-30T07:33:22;100717.19;;;15.93;100.00
72414;BME280;60995;52.154;4.498;2023-08-30T07:35:38;100734.81;;;15.74;100.00
72414;BME280;60995;52.154;4.498;2023-08-30T07:37:56;100735.16;;;15.87;100.00
72414;BME280;60995;52.154;4.498;2023-08-30T07:40:12;100746.44;;;15.67;100.00
72414;BME280;60995;52.154;4.498;2023-08-30T07:42:29;100749.19;;;15.84;100.00
72414;BME280;60995;52.154;4.498;2023-08-30T07:44:45;100743.53;;;15.69;100.00
72414;BME280;60995;52.154;4.498;2023-08-30T07:47:01;100754.28;;;15.70;100.00
72414;BME280;60995;52.154;4.498;2023-08-30T07:49:18;100757.41;;;15.67;100.00
72414;BME280;60995;52.154;4.498;2023-08-30T07:51:35;100758.41;;;15.66;100.00
72414;BME280;60995;52.154;4.498;2023-08-30T07:53:51;100749.84;;;15.78;100.00
72414;BME280;60995;52.154;4.498;2023-08-30T07:56:07;100750.69;;;15.86;100.00
72414;BME280;60995;52.154;4.498;2023-08-30T07:58:24;100747.19;;;16.17;100.00
72414;BME280;60995;52.154;4.498;2023-08-30T08:00:40;100758.19;;;16.09;100.00
72414;BME280;60995;52.154;4.498;2023-08-30T08:02:56;100759.34;;;16.15;100.00
72414;BME280;60995;52.154;4.498;2023-08-30T08:05:13;100775.84;;;15.98;100.00
72414;BME280;60995;52.154;4.498;2023-08-30T08:07:29;100774.97;;;15.98;100.00
72414;BME280;60995;52.154;4.498;2023-08-30T08:09:45;100772.38;;;16.13;100.00
72414;BME280;60995;52.154;4.498;2023-08-30T08:12:02;100775.25;;;16.19;100.00
72414;BME280;60995;52.154;4.498;2023-08-30T08:14:19;100774.94;;;16.54;100.00
72414;BME280;60995;52.154;4.498;2023-08-30T08:16:35;100783.19;;;16.46;100.00
72414;BME280;60995;52.154;4.498;2023-08-30T08:18:52;100789.66;;;16.53;100.00
72414;BME280;60995;52.154;4.498;2023-08-30T08:21:09;100796.47;;;16.65;100.00
72414;BME280;60995;52.154;4.498;2023-08-30T08:23:25;100794.31;;;16.84;100.00
72414;BME280;60995;52.154;4.498;2023-08-30T08:25:41;100801.22;;;16.72;100.00
72414;BME280;60995;52.154;4.498;2023-08-30T08:27:58;100794.31;;;17.15;100.00
72414;BME280;60995;52.154;4.498;2023-08-30T08:30:14;100813.28;;;17.25;100.00
72414;BME280;60995;52.154;4.498;2023-08-30T08:32:31;100819.69;;;17.41;100.00
72414;BME280;60995;52.154;4.498;2023-08-30T08:34:47;100823.34;;;17.56;100.00
72414;BME280;60995;52.154;4.498;2023-08-30T08:37:03;100824.66;;;17.37;100.00
72414;BME280;60995;52.154;4.498;2023-08-30T08:39:20;100844.78;;;17.29;100.00
72414;BME280;60995;52.154;4.498;2023-08-30T08:41:41;100830.75;;;17.71;100.00
72414;BME280;60995;52.154;4.498;2023-08-30T08:43:59;100806.28;;;19.47;100.00
72414;BME280;60995;52.154;4.498;2023-08-30T08:46:17;100855.97;;;19.39;100.00
72414;BME280;60995;52.154;4.498;2023-08-30T08:48:41;100854.34;;;20.16;100.00
72414;BME280;60995;52.154;4.498;2023-08-30T08:50:59;100817.50;;;21.07;100.00
72414;BME280;60995;52.154;4.498;2023-08-30T08:53:16;100798.03;;;23.84;100.00
72414;BME280;60995;52.154;4.498;2023-08-30T08:55:33;100738.97;;;26.15;100.00
72414;BME280;60995;52.154;4.498;2023-08-30T08:57:51;100710.09;;;27.66;100.00
72414;BME280;60995;52.154;4.498;2023-08-30T09:00:09;100674.09;;;27.81;100.00
72414;BME280;60995;52.154;4.498;2023-08-30T09:02:26;100626.81;;;28.85;100.00
72414;BME280;60995;52.154;4.498;2023-08-30T09:04:44;100599.69;;;30.04;100.00
72414;BME280;60995;52.154;4.498;2023-08-30T09:07:01;100594.09;;;30.09;100.00
72414;BME280;60995;52.154;4.498;2023-08-30T09:09:18;100601.63;;;28.80;100.00
72414;BME280;60995;52.154;4.498;2023-08-30T09:11:35;100580.44;;;28.57;100.00
72414;BME280;60995;52.154;4.498;2023-08-30T09:13:52;100569.69;;;29.36;100.00
72414;BME280;60995;52.154;4.498;2023-08-30T09:16:14;100524.47;;;29.49;100.00
72414;BME280;60995;52.154;4.498;2023-08-30T09:18:31;100527.59;;;28.18;100.00
72414;BME280;60995;52.154;4.498;2023-08-30T09:20:47;100533.84;;;27.19;100.00
72414;BME280;60995;52.154;4.498;2023-08-30T09:23:03;100559.34;;;25.50;100.00
72414;BME280;60995;52.154;4.498;2023-08-30T09:25:24;100636.28;;;23.67;100.00
72414;BME280;60995;52.154;4.498;2023-08-30T09:27:42;100684.91;;;24.25;100.00
72414;BME280;60995;52.154;4.498;2023-08-30T09:29:58;100663.94;;;25.44;100.00
72414;BME280;60995;52.154;4.498;2023-08-30T09:32:21;100649.47;;;25.66;100.00
72414;BME280;60995;52.154;4.498;2023-08-30T09:34:45;100654.09;;;26.01;100.00
72414;BME280;60995;52.154;4.498;2023-08-30T09:37:02;100603.81;;;27.23;100.00
72414;BME280;60995;52.154;4.498;2023-08-30T09:39:19;100530.47;;;28.01;100.00
72414;BME280;60995;52.154;4.498;2023-08-30T09:41:36;100513.50;;;28.95;98.72
72414;BME280;60995;52.154;4.498;2023-08-30T09:43:57;100487.38;;;29.16;93.52
72414;BME280;60995;52.154;4.498;2023-08-30T09:46:13;100454.56;;;29.39;90.54
72414;BME280;60995;52.154;4.498;2023-08-30T09:48:29;100514.44;;;28.13;90.82
72414;BME280;60995;52.154;4.498;2023-08-30T09:50:52;100544.63;;;26.65;97.95
72414;BME280;60995;52.154;4.498;2023-08-30T09:53:14;100564.91;;;25.02;100.00
72414;BME280;60995;52.154;4.498;2023-08-30T09:55:33;100566.94;;;24.83;100.00
72414;BME280;60995;52.154;4.498;2023-08-30T09:57:51;100571.94;;;23.65;100.00
72414;BME280;60995;52.154;4.498;2023-08-30T10:00:08;100546.59;;;22.80;100.00
72414;BME280;60995;52.154;4.498;2023-08-30T10:02:28;100569.47;;;22.37;100.00
72414;BME280;60995;52.154;4.498;2023-08-30T10:04:44;100579.03;;;21.95;100.00
72414;BME280;60995;52.154;4.498;2023-08-30T10:07:02;100596.81;;;22.52;100.00
72414;BME280;60995;52.154;4.498;2023-08-30T10:09:20;100624.63;;;24.02;100.00
72414;BME280;60995;52.154;4.498;2023-08-30T10:11:39;100614.63;;;25.27;100.00
72414;BME280;60995;52.154;4.498;2023-08-30T10:13:57;100634.03;;;25.99;100.00
72414;BME280;60995;52.154;4.498;2023-08-30T10:16:19;100652.59;;;26.63;100.00
72414;BME280;60995;52.154;4.498;2023-08-30T10:18:39;100646.91;;;26.86;100.00
72414;BME280;60995;52.154;4.498;2023-08-30T10:20:59;100645.53;;;26.14;100.00
72414;BME280;60995;52.154;4.498;2023-08-30T10:23:16;100651.00;;;25.50;100.00
72414;BME280;60995;52.154;4.498;2023-08-30T10:25:34;100624.25;;;26.08;100.00
72414;BME280;60995;52.154;4.498;2023-08-30T10:27:51;100623.50;;;26.24;100.00
72414;BME280;60995;52.154;4.498;2023-08-30T10:30:09;100615.63;;;26.79;99.74
72414;BME280;60995;52.154;4.498;2023-08-30T10:32:27;100620.97;;;26.98;98.43
72414;BME280;60995;52.154;4.498;2023-08-30T10:34:49;100595.25;;;28.08;92.51
72414;BME280;60995;52.154;4.498;2023-08-30T10:37:09;100591.56;;;27.80;91.88
72414;BME280;60995;52.154;4.498;2023-08-30T10:39:48;100574.22;;;28.50;89.14
72414;BME280;60995;52.154;4.498;2023-08-30T10:42:13;100526.44;;;29.06;85.54
72414;BME280;60995;52.154;4.498;2023-08-30T10:44:31;100524.47;;;29.49;83.29
72414;BME280;60995;52.154;4.498;2023-08-30T10:46:54;100495.75;;;29.11;81.34
72414;BME280;60995;52.154;4.498;2023-08-30T10:49:12;100493.78;;;27.87;83.79
72414;BME280;60995;52.154;4.498;2023-08-30T10:51:37;100480.28;;;27.51;84.69
72414;BME280;60995;52.154;4.498;2023-08-30T10:53:58;100495.97;;;27.18;86.51
72414;BME280;60995;52.154;4.498;2023-08-30T10:56:14;100493.53;;;26.37;89.21
72414;BME280;60995;52.154;4.498;2023-08-30T10:58:42;100505.75;;;25.25;95.08
72414;BME280;60995;52.154;4.498;2023-08-30T11:00:59;100516.81;;;24.54;98.10
72414;BME280;60995;52.154;4.498;2023-08-30T11:03:16;100512.41;;;25.01;97.61
72414;BME280;60995;52.154;4.498;2023-08-30T11:05:32;100503.13;;;26.00;94.52
72414;BME280;60995;52.154;4.498;2023-08-30T11:07:49;100490.59;;;26.61;88.73
72414;BME280;60995;52.154;4.498;2023-08-30T11:10:07;100468.94;;;26.00;89.81
72414;BME280;60995;52.154;4.498;2023-08-30T11:12:24;100474.91;;;25.91;88.27
72414;BME280;60995;52.154;4.498;2023-08-30T11:14:41;100487.41;;;25.24;90.54
72414;BME280;60995;52.154;4.498;2023-08-30T11:16:57;100471.53;;;25.61;89.87
72414;BME280;60995;52.154;4.498;2023-08-30T11:19:13;100473.59;;;26.40;86.14
72414;BME280;60995;52.154;4.498;2023-08-30T11:21:37;100464.38;;;25.36;88.84
72414;BME280;60995;52.154;4.498;2023-08-30T11:23:55;100459.41;;;26.07;89.17
72414;BME280;60995;52.154;4.498;2023-08-30T11:26:12;100458.47;;;26.70;87.97
72414;BME280;60995;52.154;4.498;2023-08-30T11:28:29;100463.47;;;26.51;85.34
72414;BME280;60995;52.154;4.498;2023-08-30T11:30:45;100468.06;;;26.28;85.01
72414;BME280;60995;52.154;4.498;2023-08-30T11:33:02;100473.03;;;25.80;88.91
72414;BME280;60995;52.154;4.498;2023-08-30T11:35:19;100478.19;;;24.41;95.44
72414;BME280;60995;52.154;4.498;2023-08-30T11:37:37;100487.22;;;23.94;100.00
72414;BME280;60995;52.154;4.498;2023-08-30T11:39:55;100508.31;;;23.76;100.00
72414;BME280;60995;52.154;4.498;2023-08-30T11:42:12;100540.81;;;23.51;100.00
72414;BME280;60995;52.154;4.498;2023-08-30T11:44:28;100648.75;;;23.32;100.00
72414;BME280;60995;52.154;4.498;2023-08-30T11:46:45;100677.13;;;23.27;100.00
72414;BME280;60995;52.154;4.498;2023-08-30T11:49:02;100654.88;;;22.52;100.00
72414;BME280;60995;52.154;4.498;2023-08-30T11:51:20;100732.31;;;22.45;100.00
72414;BME280;60995;52.154;4.498;2023-08-30T11:53:37;100733.59;;;22.29;100.00
72414;BME280;60995;52.154;4.498;2023-08-30T11:55:54;100739.00;;;21.84;100.00
72414;BME280;60995;52.154;4.498;2023-08-30T11:58:10;100731.16;;;22.01;100.00